sensor_id;sensor_type;location;lat;lon;timestamp;P1;durP1;ratioP1;P2;durP2;ratioP2
77563;SDS011;66703;48.076;9.220;2024-03-08T00:00:54;48.10;;;44.63;;
77563;SDS011;66703;48.076;9.220;2024-03-08T00:03:19;46.60;;;43.17;;
77563;SDS011;66703;48.076;9.220;2024-03-08T00:05:44;46.05;;;42.70;;
77563;SDS011;66703;48.076;9.220;2024-03-08T00:08:10;43.47;;;40.25;;
77563;SDS011;66703;48.076;9.220;2024-03-08T00:10:35;49.25;;;45.42;;
77563;SDS011;66703;48.076;9.220;2024-03-08T00:13:01;53.00;;;49.58;;
77563;SDS011;66703;48.076;9.220;2024-03-08T00:15:29;51.60;;;48.30;;
77563;SDS011;66703;48.076;9.220;2024-03-08T00:17:54;46.38;;;42.92;;
77563;SDS011;66703;48.076;9.220;2024-03-08T00:20:20;34.38;;;31.52;;
77563;SDS011;66703;48.076;9.220;2024-03-08T00:22:45;53.95;;;49.97;;
77563;SDS011;66703;48.076;9.220;2024-03-08T00:25:11;52.33;;;48.88;;
77563;SDS011;66703;48.076;9.220;2024-03-08T00:27:39;48.47;;;44.70;;
77563;SDS011;66703;48.076;9.220;2024-03-08T00:30:06;43.10;;;40.08;;
77563;SDS011;66703;48.076;9.220;2024-03-08T00:32:32;47.08;;;43.72;;
77563;SDS011;66703;48.076;9.220;2024-03-08T00:34:57;45.90;;;42.17;;
77563;SDS011;66703;48.076;9.220;2024-03-08T00:37:23;51.80;;;47.70;;
77563;SDS011;66703;48.076;9.220;2024-03-08T00:39:49;59.53;;;55.33;;
77563;SDS011;66703;48.076;9.220;2024-03-08T00:42:15;49.42;;;46.03;;
77563;SDS011;66703;48.076;9.220;2024-03-08T00:44:41;55.53;;;51.75;;
77563;SDS011;66703;48.076;9.220;2024-03-08T00:47:07;49.03;;;45.72;;
77563;SDS011;66703;48.076;9.220;2024-03-08T00:49:32;51.65;;;48.22;;
77563;SDS011;66703;48.076;9.220;2024-03-08T00:51:58;41.60;;;37.95;;
77563;SDS011;66703;48.076;9.220;2024-03-08T00:54:23;41.72;;;38.63;;
77563;SDS011;66703;48.076;9.220;2024-03-08T00:56:48;36.53;;;33.45;;
77563;SDS011;66703;48.076;9.220;2024-03-08T00:59:14;50.15;;;46.47;;
77563;SDS011;66703;48.076;9.220;2024-03-08T01:01:40;35.45;;;32.72;;
77563;SDS011;66703;48.076;9.220;2024-03-08T01:04:05;36.03;;;32.75;;
77563;SDS011;66703;48.076;9.220;2024-03-08T01:06:32;53.65;;;50.13;;
77563;SDS011;66703;48.076;9.220;2024-03-08T01:08:58;70.07;;;66.20;;
77563;SDS011;66703;48.076;9.220;2024-03-08T01:11:23;79.50;;;75.10;;
77563;SDS011;66703;48.076;9.220;2024-03-08T01:13:49;57.38;;;53.95;;
77563;SDS011;66703;48.076;9.220;2024-03-08T01:16:15;54.97;;;51.22;;
77563;SDS011;66703;48.076;9.220;2024-03-08T01:18:42;52.42;;;48.90;;
77563;SDS011;66703;48.076;9.220;2024-03-08T01:21:07;49.65;;;45.90;;
77563;SDS011;66703;48.076;9.220;2024-03-08T01:23:33;55.70;;;51.95;;
77563;SDS011;66703;48.076;9.220;2024-03-08T01:25:59;56.40;;;52.78;;
77563;SDS011;66703;48.076;9.220;2024-03-08T01:28:25;50.65;;;46.85;;
77563;SDS011;66703;48.076;9.220;2024-03-08T01:30:51;50.72;;;46.83;;
77563;SDS011;66703;48.076;9.220;2024-03-08T01:33:21;58.95;;;55.17;;
77563;SDS011;66703;48.076;9.220;2024-03-08T01:35:48;52.13;;;48.25;;
77563;SDS011;66703;48.076;9.220;2024-03-08T01:38:13;52.15;;;48.00;;
77563;SDS011;66703;48.076;9.220;2024-03-08T01:40:38;53.45;;;49.92;;
77563;SDS011;66703;48.076;9.220;2024-03-08T01:43:18;31.02;;;27.65;;
77563;SDS011;66703;48.076;9.220;2024-03-08T01:45:48;53.85;;;49.90;;
77563;SDS011;66703;48.076;9.220;2024-03-08T01:48:14;48.42;;;44.67;;
77563;SDS011;66703;48.076;9.220;2024-03-08T01:50:40;62.75;;;57.90;;
77563;SDS011;66703;48.076;9.220;2024-03-08T01:53:06;65.05;;;61.22;;
77563;SDS011;66703;48.076;9.220;2024-03-08T01:55:32;57.83;;;53.85;;
77563;SDS011;66703;48.076;9.220;2024-03-08T01:57:59;57.30;;;53.53;;
77563;SDS011;66703;48.076;9.220;2024-03-08T02:00:25;62.45;;;58.05;;
77563;SDS011;66703;48.076;9.220;2024-03-08T02:02:51;47.35;;;43.70;;
77563;SDS011;66703;48.076;9.220;2024-03-08T02:05:19;71.70;;;67.05;;
77563;SDS011;66703;48.076;9.220;2024-03-08T02:07:45;69.13;;;64.78;;
77563;SDS011;66703;48.076;9.220;2024-03-08T02:10:10;35.72;;;32.22;;
77563;SDS011;66703;48.076;9.220;2024-03-08T02:12:37;46.30;;;43.13;;
77563;SDS011;66703;48.076;9.220;2024-03-08T02:15:03;57.60;;;53.47;;
77563;SDS011;66703;48.076;9.220;2024-03-08T02:17:31;49.55;;;45.55;;
77563;SDS011;66703;48.076;9.220;2024-03-08T02:19:56;68.82;;;64.47;;
77563;SDS011;66703;48.076;9.220;2024-03-08T02:22:22;66.18;;;61.53;;
77563;SDS011;66703;48.076;9.220;2024-03-08T02:24:47;60.70;;;56.25;;
77563;SDS011;66703;48.076;9.220;2024-03-08T02:27:13;72.80;;;68.13;;
77563;SDS011;66703;48.076;9.220;2024-03-08T02:29:38;57.63;;;53.35;;
77563;SDS011;66703;48.076;9.220;2024-03-08T02:32:06;83.28;;;78.50;;
77563;SDS011;66703;48.076;9.220;2024-03-08T02:34:31;48.42;;;44.67;;
77563;SDS011;66703;48.076;9.220;2024-03-08T02:36:57;57.22;;;53.28;;
77563;SDS011;66703;48.076;9.220;2024-03-08T02:39:22;56.90;;;53.17;;
77563;SDS011;66703;48.076;9.220;2024-03-08T02:41:47;57.00;;;53.05;;
77563;SDS011;66703;48.076;9.220;2024-03-08T02:44:13;59.17;;;55.50;;
77563;SDS011;66703;48.076;9.220;2024-03-08T02:46:39;52.83;;;49.22;;
77563;SDS011;66703;48.076;9.220;2024-03-08T02:49:05;84.43;;;79.40;;
77563;SDS011;66703;48.076;9.220;2024-03-08T02:51:32;60.05;;;56.15;;
77563;SDS011;66703;48.076;9.220;2024-03-08T02:54:00;76.82;;;72.13;;
77563;SDS011;66703;48.076;9.220;2024-03-08T02:56:25;64.38;;;59.92;;
77563;SDS011;66703;48.076;9.220;2024-03-08T02:58:51;77.53;;;73.22;;
77563;SDS011;66703;48.076;9.220;2024-03-08T03:01:16;63.22;;;58.75;;
77563;SDS011;66703;48.076;9.220;2024-03-08T03:03:42;66.18;;;61.97;;
77563;SDS011;66703;48.076;9.220;2024-03-08T03:06:07;61.45;;;57.50;;
77563;SDS011;66703;48.076;9.220;2024-03-08T03:08:33;66.40;;;61.92;;
77563;SDS011;66703;48.076;9.220;2024-03-08T03:10:58;75.75;;;71.10;;
77563;SDS011;66703;48.076;9.220;2024-03-08T03:13:24;74.15;;;70.20;;
77563;SDS011;66703;48.076;9.220;2024-03-08T03:15:49;54.13;;;50.47;;
77563;SDS011;66703;48.076;9.220;2024-03-08T03:18:14;59.05;;;55.28;;
77563;SDS011;66703;48.076;9.220;2024-03-08T03:20:40;58.47;;;54.30;;
77563;SDS011;66703;48.076;9.220;2024-03-08T03:23:07;63.20;;;59.17;;
77563;SDS011;66703;48.076;9.220;2024-03-08T03:25:34;98.75;;;93.82;;
77563;SDS011;66703;48.076;9.220;2024-03-08T03:28:03;54.50;;;50.67;;
77563;SDS011;66703;48.076;9.220;2024-03-08T03:30:29;67.72;;;63.33;;
77563;SDS011;66703;48.076;9.220;2024-03-08T03:33:01;58.00;;;54.08;;
77563;SDS011;66703;48.076;9.220;2024-03-08T03:35:30;63.65;;;60.20;;
77563;SDS011;66703;48.076;9.220;2024-03-08T03:37:55;76.47;;;72.40;;
77563;SDS011;66703;48.076;9.220;2024-03-08T03:40:33;72.45;;;67.38;;
77563;SDS011;66703;48.076;9.220;2024-03-08T03:42:59;60.90;;;56.80;;
77563;SDS011;66703;48.076;9.220;2024-03-08T03:45:25;36.28;;;32.97;;
77563;SDS011;66703;48.076;9.220;2024-03-08T03:47:51;72.05;;;67.38;;
77563;SDS011;66703;48.076;9.220;2024-03-08T03:50:17;61.47;;;57.08;;
77563;SDS011;66703;48.076;9.220;2024-03-08T03:52:44;72.45;;;68.40;;
77563;SDS011;66703;48.076;9.220;2024-03-08T03:55:13;65.05;;;61.13;;
77563;SDS011;66703;48.076;9.220;2024-03-08T03:57:39;56.67;;;52.80;;
77563;SDS011;66703;48.076;9.220;2024-03-08T04:00:05;82.47;;;77.35;;
77563;SDS011;66703;48.076;9.220;2024-03-08T04:02:31;44.28;;;41.08;;
77563;SDS011;66703;48.076;9.220;2024-03-08T04:04:56;65.00;;;61.13;;
77563;SDS011;66703;48.076;9.220;2024-03-08T04:07:22;63.03;;;59.00;;
77563;SDS011;66703;48.076;9.220;2024-03-08T04:09:47;71.22;;;67.30;;
77563;SDS011;66703;48.076;9.220;2024-03-08T04:12:12;60.25;;;56.30;;
77563;SDS011;66703;48.076;9.220;2024-03-08T04:14:41;74.90;;;70.50;;
77563;SDS011;66703;48.076;9.220;2024-03-08T04:17:07;52.65;;;48.92;;
77563;SDS011;66703;48.076;9.220;2024-03-08T04:19:34;41.53;;;37.85;;
77563;SDS011;66703;48.076;9.220;2024-03-08T04:21:59;70.97;;;66.63;;
77563;SDS011;66703;48.076;9.220;2024-03-08T04:24:26;66.32;;;61.65;;
77563;SDS011;66703;48.076;9.220;2024-03-08T04:26:51;46.75;;;43.22;;
77563;SDS011;66703;48.076;9.220;2024-03-08T04:29:17;53.08;;;49.60;;
77563;SDS011;66703;48.076;9.220;2024-03-08T04:31:42;74.35;;;69.97;;
77563;SDS011;66703;48.076;9.220;2024-03-08T04:34:07;73.60;;;68.97;;
77563;SDS011;66703;48.076;9.220;2024-03-08T04:36:33;70.57;;;66.65;;
77563;SDS011;66703;48.076;9.220;2024-03-08T04:38:59;67.35;;;62.90;;
77563;SDS011;66703;48.076;9.220;2024-03-08T04:41:25;71.05;;;66.68;;
77563;SDS011;66703;48.076;9.220;2024-03-08T04:43:50;69.65;;;65.40;;
77563;SDS011;66703;48.076;9.220;2024-03-08T04:46:17;72.68;;;67.60;;
77563;SDS011;66703;48.076;9.220;2024-03-08T04:48:43;71.93;;;67.75;;
77563;SDS011;66703;48.076;9.220;2024-03-08T04:51:08;66.65;;;62.17;;
77563;SDS011;66703;48.076;9.220;2024-03-08T04:53:34;67.60;;;63.45;;
77563;SDS011;66703;48.076;9.220;2024-03-08T04:56:00;63.38;;;59.72;;
77563;SDS011;66703;48.076;9.220;2024-03-08T04:58:30;52.97;;;49.17;;
77563;SDS011;66703;48.076;9.220;2024-03-08T05:00:56;64.75;;;60.80;;
77563;SDS011;66703;48.076;9.220;2024-03-08T05:03:22;49.40;;;46.00;;
77563;SDS011;66703;48.076;9.220;2024-03-08T05:05:51;61.40;;;57.65;;
77563;SDS011;66703;48.076;9.220;2024-03-08T05:08:17;53.28;;;49.60;;
77563;SDS011;66703;48.076;9.220;2024-03-08T05:10:43;49.92;;;45.20;;
77563;SDS011;66703;48.076;9.220;2024-03-08T05:13:09;58.92;;;54.95;;
77563;SDS011;66703;48.076;9.220;2024-03-08T05:15:34;57.40;;;53.45;;
77563;SDS011;66703;48.076;9.220;2024-03-08T05:18:00;51.63;;;47.55;;
77563;SDS011;66703;48.076;9.220;2024-03-08T05:20:25;53.08;;;48.92;;
77563;SDS011;66703;48.076;9.220;2024-03-08T05:22:51;64.43;;;60.65;;
77563;SDS011;66703;48.076;9.220;2024-03-08T05:25:16;65.68;;;61.53;;
77563;SDS011;66703;48.076;9.220;2024-03-08T05:27:42;68.90;;;64.30;;
77563;SDS011;66703;48.076;9.220;2024-03-08T05:30:08;62.15;;;58.17;;
77563;SDS011;66703;48.076;9.220;2024-03-08T05:32:40;72.75;;;68.35;;
77563;SDS011;66703;48.076;9.220;2024-03-08T05:35:11;57.03;;;53.25;;
77563;SDS011;66703;48.076;9.220;2024-03-08T05:37:37;63.65;;;59.78;;
77563;SDS011;66703;48.076;9.220;2024-03-08T05:40:04;54.30;;;50.38;;
77563;SDS011;66703;48.076;9.220;2024-03-08T05:42:34;62.90;;;58.78;;
77563;SDS011;66703;48.076;9.220;2024-03-08T05:45:01;54.47;;;50.90;;
77563;SDS011;66703;48.076;9.220;2024-03-08T05:47:31;47.78;;;44.13;;
77563;SDS011;66703;48.076;9.220;2024-03-08T05:49:58;64.65;;;60.17;;
77563;SDS011;66703;48.076;9.220;2024-03-08T05:52:24;55.38;;;50.97;;
77563;SDS011;66703;48.076;9.220;2024-03-08T05:54:51;59.40;;;54.45;;
77563;SDS011;66703;48.076;9.220;2024-03-08T05:57:16;36.72;;;33.40;;
77563;SDS011;66703;48.076;9.220;2024-03-08T05:59:42;50.03;;;46.65;;
77563;SDS011;66703;48.076;9.220;2024-03-08T06:02:07;60.42;;;56.78;;
77563;SDS011;66703;48.076;9.220;2024-03-08T06:04:33;60.97;;;56.60;;
77563;SDS011;66703;48.076;9.220;2024-03-08T06:06:58;63.13;;;58.95;;
77563;SDS011;66703;48.076;9.220;2024-03-08T06:09:24;77.05;;;72.15;;
77563;SDS011;66703;48.076;9.220;2024-03-08T06:11:51;71.82;;;67.53;;
77563;SDS011;66703;48.076;9.220;2024-03-08T06:14:20;47.42;;;44.08;;
77563;SDS011;66703;48.076;9.220;2024-03-08T06:16:46;64.18;;;60.20;;
77563;SDS011;66703;48.076;9.220;2024-03-08T06:19:12;69.68;;;65.40;;
77563;SDS011;66703;48.076;9.220;2024-03-08T06:21:38;63.58;;;59.58;;
77563;SDS011;66703;48.076;9.220;2024-03-08T06:24:04;75.45;;;71.40;;
77563;SDS011;66703;48.076;9.220;2024-03-08T06:26:29;67.43;;;63.63;;
77563;SDS011;66703;48.076;9.220;2024-03-08T06:28:55;41.90;;;38.72;;
77563;SDS011;66703;48.076;9.220;2024-03-08T06:31:21;60.28;;;56.40;;
77563;SDS011;66703;48.076;9.220;2024-03-08T06:33:48;47.97;;;44.55;;
77563;SDS011;66703;48.076;9.220;2024-03-08T06:36:19;62.30;;;58.35;;
77563;SDS011;66703;48.076;9.220;2024-03-08T06:38:46;59.17;;;55.55;;
77563;SDS011;66703;48.076;9.220;2024-03-08T06:41:13;63.55;;;59.42;;
77563;SDS011;66703;48.076;9.220;2024-03-08T06:43:41;49.25;;;45.80;;
77563;SDS011;66703;48.076;9.220;2024-03-08T06:46:07;67.15;;;63.05;;
77563;SDS011;66703;48.076;9.220;2024-03-08T06:48:33;53.67;;;50.13;;
77563;SDS011;66703;48.076;9.220;2024-03-08T06:50:59;67.78;;;63.72;;
77563;SDS011;66703;48.076;9.220;2024-03-08T06:53:24;62.13;;;58.05;;
77563;SDS011;66703;48.076;9.220;2024-03-08T06:55:50;87.75;;;83.15;;
77563;SDS011;66703;48.076;9.220;2024-03-08T06:58:15;95.05;;;90.72;;
77563;SDS011;66703;48.076;9.220;2024-03-08T07:00:41;58.65;;;54.63;;
77563;SDS011;66703;48.076;9.220;2024-03-08T07:03:07;51.05;;;47.67;;
77563;SDS011;66703;48.076;9.220;2024-03-08T07:05:37;71.30;;;67.53;;
77563;SDS011;66703;48.076;9.220;2024-03-08T07:08:02;66.63;;;62.90;;
77563;SDS011;66703;48.076;9.220;2024-03-08T07:10:28;67.30;;;63.83;;
77563;SDS011;66703;48.076;9.220;2024-03-08T07:12:54;51.83;;;47.85;;
77563;SDS011;66703;48.076;9.220;2024-03-08T07:15:19;51.28;;;48.08;;
77563;SDS011;66703;48.076;9.220;2024-03-08T07:17:45;72.18;;;68.40;;
77563;SDS011;66703;48.076;9.220;2024-03-08T07:20:12;61.10;;;56.83;;
77563;SDS011;66703;48.076;9.220;2024-03-08T07:22:47;57.97;;;54.22;;
77563;SDS011;66703;48.076;9.220;2024-03-08T07:25:13;53.38;;;49.40;;
77563;SDS011;66703;48.076;9.220;2024-03-08T07:27:48;32.28;;;29.20;;
77563;SDS011;66703;48.076;9.220;2024-03-08T07:30:13;55.13;;;51.55;;
77563;SDS011;66703;48.076;9.220;2024-03-08T07:32:59;83.22;;;78.90;;
77563;SDS011;66703;48.076;9.220;2024-03-08T07:35:27;48.72;;;45.10;;
77563;SDS011;66703;48.076;9.220;2024-03-08T07:37:56;63.40;;;59.25;;
77563;SDS011;66703;48.076;9.220;2024-03-08T07:40:25;52.40;;;48.85;;
77563;SDS011;66703;48.076;9.220;2024-03-08T07:42:50;63.88;;;60.25;;
77563;SDS011;66703;48.076;9.220;2024-03-08T07:45:16;69.18;;;65.30;;
77563;SDS011;66703;48.076;9.220;2024-03-08T07:47:42;51.90;;;48.72;;
77563;SDS011;66703;48.076;9.220;2024-03-08T07:50:08;72.95;;;69.32;;
77563;SDS011;66703;48.076;9.220;2024-03-08T07:52:34;38.63;;;35.60;;
77563;SDS011;66703;48.076;9.220;2024-03-08T07:55:00;56.40;;;52.95;;
77563;SDS011;66703;48.076;9.220;2024-03-08T07:57:26;70.28;;;66.38;;
77563;SDS011;66703;48.076;9.220;2024-03-08T07:59:51;68.35;;;64.63;;
77563;SDS011;66703;48.076;9.220;2024-03-08T08:02:17;74.43;;;70.32;;
77563;SDS011;66703;48.076;9.220;2024-03-08T08:04:42;55.70;;;52.22;;
77563;SDS011;66703;48.076;9.220;2024-03-08T08:07:09;59.63;;;56.08;;
77563;SDS011;66703;48.076;9.220;2024-03-08T08:09:35;63.58;;;59.72;;
77563;SDS011;66703;48.076;9.220;2024-03-08T08:12:00;56.90;;;53.00;;
77563;SDS011;66703;48.076;9.220;2024-03-08T08:14:29;56.20;;;52.35;;
77563;SDS011;66703;48.076;9.220;2024-03-08T08:16:56;68.18;;;63.90;;
77563;SDS011;66703;48.076;9.220;2024-03-08T08:19:22;54.95;;;50.67;;
77563;SDS011;66703;48.076;9.220;2024-03-08T08:21:48;59.90;;;55.78;;
77563;SDS011;66703;48.076;9.220;2024-03-08T08:24:13;60.30;;;56.38;;
77563;SDS011;66703;48.076;9.220;2024-03-08T08:26:39;71.53;;;67.32;;
77563;SDS011;66703;48.076;9.220;2024-03-08T08:29:05;57.88;;;54.28;;
77563;SDS011;66703;48.076;9.220;2024-03-08T08:31:31;66.85;;;62.70;;
77563;SDS011;66703;48.076;9.220;2024-03-08T08:33:57;53.30;;;49.88;;
77563;SDS011;66703;48.076;9.220;2024-03-08T08:36:25;45.25;;;41.45;;
77563;SDS011;66703;48.076;9.220;2024-03-08T08:38:51;52.80;;;49.15;;
77563;SDS011;66703;48.076;9.220;2024-03-08T08:41:19;67.47;;;63.28;;
77563;SDS011;66703;48.076;9.220;2024-03-08T08:43:46;62.00;;;57.95;;
77563;SDS011;66703;48.076;9.220;2024-03-08T08:46:12;56.70;;;52.75;;
77563;SDS011;66703;48.076;9.220;2024-03-08T08:48:40;47.50;;;43.85;;
77563;SDS011;66703;48.076;9.220;2024-03-08T08:51:06;47.45;;;44.25;;
77563;SDS011;66703;48.076;9.220;2024-03-08T08:53:40;48.90;;;45.67;;
77563;SDS011;66703;48.076;9.220;2024-03-08T08:56:08;57.15;;;53.42;;
77563;SDS011;66703;48.076;9.220;2024-03-08T08:58:34;48.65;;;45.05;;
77563;SDS011;66703;48.076;9.220;2024-03-08T09:01:00;55.75;;;52.33;;
77563;SDS011;66703;48.076;9.220;2024-03-08T09:03:26;48.33;;;44.50;;
77563;SDS011;66703;48.076;9.220;2024-03-08T09:05:53;55.58;;;52.03;;
77563;SDS011;66703;48.076;9.220;2024-03-08T09:08:19;57.63;;;53.88;;
77563;SDS011;66703;48.076;9.220;2024-03-08T09:10:45;65.80;;;61.60;;
77563;SDS011;66703;48.076;9.220;2024-03-08T09:13:10;55.75;;;52.15;;
77563;SDS011;66703;48.076;9.220;2024-03-08T09:15:38;49.00;;;45.67;;
77563;SDS011;66703;48.076;9.220;2024-03-08T09:18:05;56.28;;;52.65;;
77563;SDS011;66703;48.076;9.220;2024-03-08T09:20:31;61.10;;;56.95;;
77563;SDS011;66703;48.076;9.220;2024-03-08T09:22:57;49.95;;;46.40;;
77563;SDS011;66703;48.076;9.220;2024-03-08T09:25:23;53.40;;;49.90;;
77563;SDS011;66703;48.076;9.220;2024-03-08T09:27:48;46.40;;;43.13;;
77563;SDS011;66703;48.076;9.220;2024-03-08T09:30:14;43.50;;;40.22;;
77563;SDS011;66703;48.076;9.220;2024-03-08T09:32:40;52.70;;;49.45;;
77563;SDS011;66703;48.076;9.220;2024-03-08T09:35:06;42.88;;;40.13;;
77563;SDS011;66703;48.076;9.220;2024-03-08T09:37:32;45.88;;;42.72;;
77563;SDS011;66703;48.076;9.220;2024-03-08T09:39:59;27.02;;;24.70;;
77563;SDS011;66703;48.076;9.220;2024-03-08T09:42:24;50.80;;;47.45;;
77563;SDS011;66703;48.076;9.220;2024-03-08T09:44:50;34.83;;;32.40;;
77563;SDS011;66703;48.076;9.220;2024-03-08T09:47:15;45.08;;;41.85;;
77563;SDS011;66703;48.076;9.220;2024-03-08T09:49:43;43.22;;;40.30;;
77563;SDS011;66703;48.076;9.220;2024-03-08T09:52:08;45.75;;;42.63;;
77563;SDS011;66703;48.076;9.220;2024-03-08T09:54:35;56.80;;;53.30;;
77563;SDS011;66703;48.076;9.220;2024-03-08T09:57:00;58.90;;;55.38;;
77563;SDS011;66703;48.076;9.220;2024-03-08T09:59:29;50.45;;;47.55;;
77563;SDS011;66703;48.076;9.220;2024-03-08T10:02:15;53.72;;;50.72;;
77563;SDS011;66703;48.076;9.220;2024-03-08T10:04:41;41.10;;;37.97;;
77563;SDS011;66703;48.076;9.220;2024-03-08T10:07:12;50.55;;;47.45;;
77563;SDS011;66703;48.076;9.220;2024-03-08T10:09:38;46.95;;;43.60;;
77563;SDS011;66703;48.076;9.220;2024-03-08T10:12:04;38.85;;;36.03;;
77563;SDS011;66703;48.076;9.220;2024-03-08T10:14:30;51.00;;;48.00;;
77563;SDS011;66703;48.076;9.220;2024-03-08T10:16:57;44.90;;;41.80;;
77563;SDS011;66703;48.076;9.220;2024-03-08T10:19:25;43.13;;;39.90;;
77563;SDS011;66703;48.076;9.220;2024-03-08T10:21:51;59.45;;;56.00;;
77563;SDS011;66703;48.076;9.220;2024-03-08T10:24:18;48.42;;;45.35;;
77563;SDS011;66703;48.076;9.220;2024-03-08T10:26:44;29.70;;;27.02;;
77563;SDS011;66703;48.076;9.220;2024-03-08T10:29:09;59.60;;;55.83;;
77563;SDS011;66703;48.076;9.220;2024-03-08T10:31:35;42.40;;;39.78;;
77563;SDS011;66703;48.076;9.220;2024-03-08T10:34:01;41.63;;;38.58;;
77563;SDS011;66703;48.076;9.220;2024-03-08T10:36:28;43.03;;;40.10;;
77563;SDS011;66703;48.076;9.220;2024-03-08T10:38:58;58.33;;;54.67;;
77563;SDS011;66703;48.076;9.220;2024-03-08T10:41:26;46.15;;;43.08;;
77563;SDS011;66703;48.076;9.220;2024-03-08T10:49:06;50.00;;;47.22;;
77563;SDS011;66703;48.076;9.220;2024-03-08T10:51:33;51.00;;;47.92;;
77563;SDS011;66703;48.076;9.220;2024-03-08T10:53:59;40.38;;;37.58;;
77563;SDS011;66703;48.076;9.220;2024-03-08T10:56:25;44.97;;;42.33;;
77563;SDS011;66703;48.076;9.220;2024-03-08T10:58:53;50.00;;;47.25;;
77563;SDS011;66703;48.076;9.220;2024-03-08T11:01:19;49.45;;;46.28;;
77563;SDS011;66703;48.076;9.220;2024-03-08T11:03:45;31.90;;;29.33;;
77563;SDS011;66703;48.076;9.220;2024-03-08T11:08:43;35.45;;;32.78;;
77563;SDS011;66703;48.076;9.220;2024-03-08T11:11:28;47.53;;;44.40;;
77563;SDS011;66703;48.076;9.220;2024-03-08T11:13:56;52.20;;;49.35;;
77563;SDS011;66703;48.076;9.220;2024-03-08T11:18:54;40.55;;;37.85;;
77563;SDS011;66703;48.076;9.220;2024-03-08T11:26:33;42.25;;;39.13;;
77563;SDS011;66703;48.076;9.220;2024-03-08T11:34:37;42.80;;;39.75;;
77563;SDS011;66703;48.076;9.220;2024-03-08T11:37:04;52.50;;;49.28;;
77563;SDS011;66703;48.076;9.220;2024-03-08T11:39:31;29.00;;;26.58;;
77563;SDS011;66703;48.076;9.220;2024-03-08T11:41:56;51.30;;;48.00;;
77563;SDS011;66703;48.076;9.220;2024-03-08T11:44:26;30.65;;;28.25;;
77563;SDS011;66703;48.076;9.220;2024-03-08T11:46:52;43.88;;;40.75;;
77563;SDS011;66703;48.076;9.220;2024-03-08T11:49:19;44.05;;;40.83;;
77563;SDS011;66703;48.076;9.220;2024-03-08T11:51:44;45.95;;;43.08;;
77563;SDS011;66703;48.076;9.220;2024-03-08T11:54:11;39.35;;;36.33;;
77563;SDS011;66703;48.076;9.220;2024-03-08T11:56:38;40.25;;;37.45;;
77563;SDS011;66703;48.076;9.220;2024-03-08T11:59:03;44.63;;;41.28;;
77563;SDS011;66703;48.076;9.220;2024-03-08T12:01:30;42.65;;;39.72;;
77563;SDS011;66703;48.076;9.220;2024-03-08T12:03:56;34.33;;;31.63;;
77563;SDS011;66703;48.076;9.220;2024-03-08T12:06:24;38.13;;;35.03;;
77563;SDS011;66703;48.076;9.220;2024-03-08T12:08:50;29.55;;;27.27;;
77563;SDS011;66703;48.076;9.220;2024-03-08T12:11:15;39.67;;;37.00;;
77563;SDS011;66703;48.076;9.220;2024-03-08T12:13:44;38.13;;;35.55;;
77563;SDS011;66703;48.076;9.220;2024-03-08T12:16:11;38.92;;;36.08;;
77563;SDS011;66703;48.076;9.220;2024-03-08T12:18:37;42.78;;;40.00;;
77563;SDS011;66703;48.076;9.220;2024-03-08T12:21:03;37.83;;;35.38;;
77563;SDS011;66703;48.076;9.220;2024-03-08T12:23:33;34.63;;;32.25;;
77563;SDS011;66703;48.076;9.220;2024-03-08T12:26:08;27.92;;;25.67;;
77563;SDS011;66703;48.076;9.220;2024-03-08T12:28:47;38.08;;;35.58;;
77563;SDS011;66703;48.076;9.220;2024-03-08T12:31:13;36.97;;;34.50;;
77563;SDS011;66703;48.076;9.220;2024-03-08T12:33:52;33.72;;;30.98;;
77563;SDS011;66703;48.076;9.220;2024-03-08T12:38:45;27.55;;;25.42;;
77563;SDS011;66703;48.076;9.220;2024-03-08T12:41:13;53.15;;;49.83;;
77563;SDS011;66703;48.076;9.220;2024-03-08T12:43:44;36.03;;;33.22;;
77563;SDS011;66703;48.076;9.220;2024-03-08T12:46:16;44.67;;;41.70;;
77563;SDS011;66703;48.076;9.220;2024-03-08T12:48:42;36.47;;;33.95;;
77563;SDS011;66703;48.076;9.220;2024-03-08T12:51:12;34.60;;;32.05;;
77563;SDS011;66703;48.076;9.220;2024-03-08T12:53:44;31.33;;;28.75;;
77563;SDS011;66703;48.076;9.220;2024-03-08T12:56:10;35.03;;;32.53;;
77563;SDS011;66703;48.076;9.220;2024-03-08T12:58:36;40.05;;;37.17;;
77563;SDS011;66703;48.076;9.220;2024-03-08T13:01:03;33.85;;;31.45;;
77563;SDS011;66703;48.076;9.220;2024-03-08T13:03:33;38.33;;;35.78;;
77563;SDS011;66703;48.076;9.220;2024-03-08T13:06:01;41.78;;;38.70;;
77563;SDS011;66703;48.076;9.220;2024-03-08T13:08:27;37.75;;;35.20;;
77563;SDS011;66703;48.076;9.220;2024-03-08T13:10:54;34.05;;;31.63;;
77563;SDS011;66703;48.076;9.220;2024-03-08T13:13:20;35.60;;;32.80;;
77563;SDS011;66703;48.076;9.220;2024-03-08T13:15:45;31.85;;;29.27;;
77563;SDS011;66703;48.076;9.220;2024-03-08T13:18:10;33.13;;;30.25;;
77563;SDS011;66703;48.076;9.220;2024-03-08T13:20:36;39.53;;;36.67;;
77563;SDS011;66703;48.076;9.220;2024-03-08T13:23:04;33.25;;;30.77;;
77563;SDS011;66703;48.076;9.220;2024-03-08T13:25:30;32.28;;;29.52;;
77563;SDS011;66703;48.076;9.220;2024-03-08T13:27:56;30.52;;;28.20;;
77563;SDS011;66703;48.076;9.220;2024-03-08T13:30:24;36.33;;;33.63;;
77563;SDS011;66703;48.076;9.220;2024-03-08T13:32:52;30.95;;;28.40;;
77563;SDS011;66703;48.076;9.220;2024-03-08T13:35:19;29.88;;;27.40;;
77563;SDS011;66703;48.076;9.220;2024-03-08T13:37:49;27.20;;;24.55;;
77563;SDS011;66703;48.076;9.220;2024-03-08T13:40:15;37.92;;;35.13;;
77563;SDS011;66703;48.076;9.220;2024-03-08T13:42:43;35.67;;;32.83;;
77563;SDS011;66703;48.076;9.220;2024-03-08T13:45:09;32.75;;;29.90;;
77563;SDS011;66703;48.076;9.220;2024-03-08T13:47:40;32.08;;;29.27;;
77563;SDS011;66703;48.076;9.220;2024-03-08T13:50:06;34.88;;;32.47;;
77563;SDS011;66703;48.076;9.220;2024-03-08T13:52:33;31.25;;;28.55;;
77563;SDS011;66703;48.076;9.220;2024-03-08T13:55:00;30.65;;;28.02;;
77563;SDS011;66703;48.076;9.220;2024-03-08T13:57:26;27.05;;;24.27;;
77563;SDS011;66703;48.076;9.220;2024-03-08T13:59:52;36.45;;;33.95;;
77563;SDS011;66703;48.076;9.220;2024-03-08T14:02:18;22.98;;;21.00;;
77563;SDS011;66703;48.076;9.220;2024-03-08T14:04:43;18.23;;;14.63;;
77563;SDS011;66703;48.076;9.220;2024-03-08T14:07:08;23.70;;;21.23;;
77563;SDS011;66703;48.076;9.220;2024-03-08T14:09:36;26.73;;;24.67;;
77563;SDS011;66703;48.076;9.220;2024-03-08T14:12:05;22.73;;;20.52;;
77563;SDS011;66703;48.076;9.220;2024-03-08T14:14:33;24.90;;;22.63;;
77563;SDS011;66703;48.076;9.220;2024-03-08T14:17:02;21.77;;;19.20;;
77563;SDS011;66703;48.076;9.220;2024-03-08T14:19:28;23.60;;;21.50;;
77563;SDS011;66703;48.076;9.220;2024-03-08T14:21:56;28.38;;;25.88;;
77563;SDS011;66703;48.076;9.220;2024-03-08T14:24:21;22.67;;;20.67;;
77563;SDS011;66703;48.076;9.220;2024-03-08T14:26:47;24.95;;;22.58;;
77563;SDS011;66703;48.076;9.220;2024-03-08T14:29:14;22.95;;;20.75;;
77563;SDS011;66703;48.076;9.220;2024-03-08T14:31:40;23.50;;;21.17;;
77563;SDS011;66703;48.076;9.220;2024-03-08T14:34:08;17.58;;;15.82;;
77563;SDS011;66703;48.076;9.220;2024-03-08T14:36:33;21.63;;;19.42;;
77563;SDS011;66703;48.076;9.220;2024-03-08T14:38:59;24.60;;;22.40;;
77563;SDS011;66703;48.076;9.220;2024-03-08T14:41:25;24.00;;;21.83;;